Time;durP1;ratioP1;P1;durP2;ratioP2;P2;SDS_P1;SDS_P2;PMS_P1;PMS_P2;Temp;Humidity;BMP_temperature;BMP_pressure;BME280_temperature;BME280_humidity;BME280_pressure;Samples;Min_cycle;Max_cycle;Signal;HPM_P1;HPM_P2
2022/12/02 00:02:19;;;;;;;51.45;23.27;;;3.30;99.90;;;;;;5047284;28;20080;-85
2022/12/02 00:04:46;;;;;;;50.50;23.52;;;3.30;99.90;;;;;;5063987;28;20818;-84
2022/12/02 00:07:18;;;;;;;53.35;23.77;;;3.30;99.90;;;;;;5066843;28;20042;-85
2022/12/02 00:09:44;;;;;;;47.85;23.25;;;3.40;99.90;;;;;;5033057;28;20033;-85
2022/12/02 00:12:20;;;;;;;50.22;22.02;;;3.40;99.90;;;;;;5018679;28;20450;-85
2022/12/02 00:14:48;;;;;;;40.75;21.02;;;3.30;99.90;;;;;;5049667;28;20253;-85
2022/12/02 00:17:14;;;;;;;45.53;22.02;;;3.40;99.90;;;;;;5017528;28;20032;-85
2022/12/02 00:19:39;;;;;;;40.45;20.83;;;3.40;99.90;;;;;;5045860;28;20036;-85
2022/12/02 00:22:05;;;;;;;44.92;21.63;;;3.30;99.90;;;;;;5048624;28;20167;-85
2022/12/02 00:24:31;;;;;;;43.88;21.48;;;3.30;99.90;;;;;;5045363;28;20036;-85
2022/12/02 00:26:56;;;;;;;43.38;21.00;;;3.30;99.90;;;;;;5017024;28;20049;-84
2022/12/02 00:29:22;;;;;;;41.03;21.15;;;3.30;99.90;;;;;;5029719;28;20520;-86
2022/12/02 00:31:48;;;;;;;43.17;20.65;;;3.30;99.90;;;;;;5017738;28;20053;-85
2022/12/02 00:34:13;;;;;;;48.22;22.00;;;3.30;99.90;;;;;;5036502;28;20474;-85
2022/12/02 00:36:39;;;;;;;46.13;21.30;;;3.30;99.90;;;;;;5047595;28;20037;-85
2022/12/02 00:39:04;;;;;;;45.60;22.00;;;3.40;99.90;;;;;;5035541;28;20102;-84
2022/12/02 00:41:30;;;;;;;46.15;22.58;;;3.30;99.90;;;;;;5046108;28;20318;-85
2022/12/02 00:46:30;;;;;;;45.85;21.23;;;3.30;99.90;;;;;;5047644;28;20037;-84
2022/12/02 00:46:44;;;;;;;44.72;22.58;;;3.30;99.90;;;;;;5038087;28;20103;-85
2022/12/02 00:49:15;;;;;;;42.35;22.13;;;3.30;99.90;;;;;;5046227;28;20037;-85
2022/12/02 00:51:41;;;;;;;46.33;21.38;;;3.30;99.90;;;;;;5045679;28;20045;-85
2022/12/02 00:54:08;;;;;;;45.85;21.02;;;3.30;99.90;;;;;;5017881;28;20171;-85
2022/12/02 00:56:34;;;;;;;41.90;20.33;;;3.30;99.90;;;;;;5016236;28;20094;-84
2022/12/02 00:59:00;;;;;;;38.42;19.17;;;3.30;99.90;;;;;;5031819;28;20048;-85
2022/12/02 01:01:26;;;;;;;35.53;17.83;;;3.30;99.90;;;;;;5045177;28;20041;-84
2022/12/02 01:03:52;;;;;;;34.22;17.08;;;3.30;99.90;;;;;;5045786;28;20440;-85
2022/12/02 01:06:17;;;;;;;36.42;16.70;;;3.30;99.90;;;;;;5019713;28;20106;-84
2022/12/02 01:08:43;;;;;;;35.78;16.40;;;3.30;99.90;;;;;;5017847;28;20047;-85
2022/12/02 01:11:09;;;;;;;35.83;17.33;;;3.30;99.90;;;;;;5018180;28;20543;-86
2022/12/02 01:13:35;;;;;;;33.38;16.88;;;3.30;99.90;;;;;;5046142;28;20060;-85
2022/12/02 01:16:04;;;;;;;35.75;17.45;;;3.30;99.90;;;;;;5022677;28;20037;-85
2022/12/02 01:18:30;;;;;;;36.17;17.55;;;3.30;99.90;;;;;;5047521;28;20647;-85
2022/12/02 01:20:56;;;;;;;39.38;18.90;;;3.30;99.90;;;;;;5049962;28;20045;-85
2022/12/02 01:23:22;;;;;;;34.03;17.50;;;3.30;99.90;;;;;;5038314;28;20087;-85
2022/12/02 01:25:48;;;;;;;41.40;19.65;;;3.30;99.90;;;;;;5036441;28;20387;-85
2022/12/02 01:28:17;;;;;;;40.70;19.33;;;3.30;99.90;;;;;;5037356;28;20080;-84
2022/12/02 01:30:43;;;;;;;39.58;18.42;;;3.30;99.90;;;;;;5036899;28;20045;-84
2022/12/02 01:33:08;;;;;;;40.20;18.88;;;3.30;99.90;;;;;;5065632;28;20044;-85
2022/12/02 01:35:34;;;;;;;42.42;18.77;;;3.30;99.90;;;;;;5067340;28;20187;-84
2022/12/02 01:38:00;;;;;;;39.95;19.75;;;3.30;99.90;;;;;;5016704;28;20210;-84
2022/12/02 01:40:27;;;;;;;39.30;18.77;;;3.20;99.90;;;;;;5021757;28;20045;-85
2022/12/02 01:42:53;;;;;;;35.30;16.75;;;3.20;99.90;;;;;;5036162;28;20050;-85
2022/12/02 01:45:19;;;;;;;35.65;16.75;;;3.20;99.90;;;;;;5034424;28;20047;-86
2022/12/02 01:47:48;;;;;;;33.40;16.05;;;3.20;99.90;;;;;;5020169;28;20277;-86
2022/12/02 01:50:16;;;;;;;35.10;16.13;;;3.10;99.90;;;;;;5021742;28;20041;-85
2022/12/02 01:52:41;;;;;;;33.00;15.90;;;3.10;99.90;;;;;;5050493;28;20083;-85
2022/12/02 01:55:12;;;;;;;33.85;15.40;;;3.20;99.90;;;;;;5036209;28;20056;-85
2022/12/02 01:57:41;;;;;;;35.97;16.92;;;3.20;99.90;;;;;;5047008;28;20090;-84
2022/12/02 02:00:07;;;;;;;36.88;17.20;;;3.10;99.90;;;;;;5019238;28;20060;-85
2022/12/02 02:02:35;;;;;;;38.22;16.55;;;3.10;99.90;;;;;;5015988;28;20705;-85
2022/12/02 02:05:10;;;;;;;35.97;16.40;;;3.10;99.90;;;;;;5021473;28;20032;-85
2022/12/02 02:07:36;;;;;;;38.35;18.17;;;3.10;99.90;;;;;;5020012;28;20119;-86
2022/12/02 02:10:04;;;;;;;38.65;17.17;;;3.10;99.90;;;;;;5020307;28;20488;-86
2022/12/02 02:12:30;;;;;;;41.47;17.98;;;3.10;99.90;;;;;;5021857;28;20064;-85
2022/12/02 02:14:56;;;;;;;41.90;17.95;;;3.00;99.90;;;;;;5048785;28;20029;-86
2022/12/02 02:17:22;;;;;;;41.67;18.13;;;3.00;99.90;;;;;;5066406;28;20032;-85
2022/12/02 02:19:48;;;;;;;41.22;19.20;;;3.00;99.90;;;;;;5032496;28;20048;-85
2022/12/02 02:22:28;;;;;;;41.72;18.63;;;3.00;99.90;;;;;;5020005;28;20041;-85
2022/12/02 02:24:54;;;;;;;40.40;19.27;;;3.00;99.90;;;;;;5062813;28;20072;-85
2022/12/02 02:27:19;;;;;;;41.53;19.05;;;3.00;99.90;;;;;;5018720;28;20121;-86
2022/12/02 02:29:45;;;;;;;39.88;19.27;;;3.00;99.90;;;;;;5038571;28;20067;-84
2022/12/02 02:32:11;;;;;;;40.03;18.13;;;3.00;99.90;;;;;;5022288;28;20102;-85
2022/12/02 02:34:37;;;;;;;44.17;19.02;;;2.90;99.90;;;;;;5048158;28;20037;-85
2022/12/02 02:37:03;;;;;;;45.75;19.83;;;2.90;99.90;;;;;;5020162;28;20033;-85
2022/12/02 02:39:29;;;;;;;40.42;18.67;;;3.00;99.90;;;;;;5036284;28;20060;-85
2022/12/02 02:41:56;;;;;;;39.28;18.98;;;3.00;99.90;;;;;;5034706;28;20112;-85
2022/12/02 02:44:22;;;;;;;43.03;19.17;;;3.00;99.90;;;;;;5036771;28;20032;-85
2022/12/02 02:46:48;;;;;;;36.38;18.08;;;3.00;99.90;;;;;;5022157;28;20111;-85
2022/12/02 02:49:14;;;;;;;42.60;18.42;;;3.00;99.90;;;;;;5021471;28;20032;-85
2022/12/02 02:51:39;;;;;;;45.13;20.60;;;2.90;99.90;;;;;;5018101;28;20064;-85
2022/12/02 02:54:05;;;;;;;43.17;19.73;;;2.90;99.90;;;;;;5021324;28;20064;-85
2022/12/02 02:56:31;;;;;;;37.72;17.40;;;2.90;99.90;;;;;;5048214;28;20048;-85
2022/12/02 02:58:57;;;;;;;36.85;16.77;;;2.90;99.90;;;;;;5032011;28;20040;-85
2022/12/02 03:01:34;;;;;;;42.97;19.63;;;2.90;99.90;;;;;;5047423;28;20460;-85
2022/12/02 03:04:06;;;;;;;45.10;19.08;;;2.90;99.90;;;;;;5048300;28;20060;-84
2022/12/02 03:06:33;;;;;;;37.05;17.13;;;2.90;99.90;;;;;;5046412;28;20056;-85
2022/12/02 03:09:00;;;;;;;46.20;19.88;;;2.90;99.90;;;;;;5064824;28;20364;-85
2022/12/02 03:11:27;;;;;;;44.33;18.15;;;2.90;99.90;;;;;;5018308;28;20583;-84
2022/12/02 03:13:56;;;;;;;42.70;18.88;;;2.90;99.90;;;;;;5066792;28;20145;-85
2022/12/02 03:16:24;;;;;;;43.03;18.55;;;2.80;99.90;;;;;;5034879;28;20544;-85
2022/12/02 03:18:52;;;;;;;37.65;17.98;;;2.80;99.90;;;;;;5049370;28;20073;-85
2022/12/02 03:21:24;;;;;;;40.70;18.60;;;2.80;99.90;;;;;;5066192;28;20045;-84
2022/12/02 03:23:54;;;;;;;39.85;18.60;;;2.80;99.90;;;;;;5045959;28;20036;-85
2022/12/02 03:26:19;;;;;;;40.47;17.73;;;2.80;99.90;;;;;;5018292;28;20036;-85
2022/12/02 03:28:46;;;;;;;41.45;18.63;;;2.70;99.90;;;;;;5031794;28;20037;-85
2022/12/02 03:31:12;;;;;;;40.67;17.92;;;2.80;99.90;;;;;;5019753;28;20404;-85
2022/12/02 03:33:42;;;;;;;40.55;19.15;;;2.80;99.90;;;;;;5048452;28;20072;-85
2022/12/02 03:36:08;;;;;;;39.45;17.85;;;2.80;99.90;;;;;;5023853;28;20135;-85
2022/12/02 03:38:35;;;;;;;43.10;18.20;;;2.80;99.90;;;;;;5047764;28;20041;-85
2022/12/02 03:41:04;;;;;;;35.60;16.27;;;2.80;99.90;;;;;;5036248;28;20047;-85
2022/12/02 03:43:31;;;;;;;40.95;16.33;;;2.80;99.90;;;;;;5021390;28;20256;-84
2022/12/02 03:45:57;;;;;;;37.17;18.10;;;2.70;99.90;;;;;;5051797;28;20342;-85
2022/12/02 03:48:24;;;;;;;38.50;16.98;;;2.80;99.90;;;;;;5035690;28;20056;-85
2022/12/02 03:50:51;;;;;;;34.97;15.02;;;2.70;99.90;;;;;;5050369;28;20084;-85
2022/12/02 03:53:19;;;;;;;34.67;16.13;;;2.70;99.90;;;;;;5019476;28;20049;-85
2022/12/02 03:55:45;;;;;;;37.90;15.88;;;2.70;99.90;;;;;;5048473;28;20087;-85
2022/12/02 03:58:10;;;;;;;38.65;16.55;;;2.70;99.90;;;;;;5042937;28;20044;-85
2022/12/02 04:00:37;;;;;;;35.78;15.85;;;2.70;99.90;;;;;;5018656;28;20876;-85
2022/12/02 04:03:03;;;;;;;33.42;15.50;;;2.70;99.90;;;;;;5017141;28;20029;-84
2022/12/02 04:05:31;;;;;;;34.20;15.50;;;2.70;99.90;;;;;;5038441;28;20051;-85
2022/12/02 04:07:57;;;;;;;40.70;17.17;;;2.70;99.90;;;;;;5044331;28;20033;-85
2022/12/02 04:10:23;;;;;;;39.85;18.67;;;2.70;99.90;;;;;;5022007;28;20114;-85
2022/12/02 04:12:48;;;;;;;43.83;19.83;;;2.60;99.90;;;;;;5023297;28;20479;-85
2022/12/02 04:15:14;;;;;;;47.50;20.85;;;2.70;99.90;;;;;;5048355;28;20102;-85
2022/12/02 04:17:40;;;;;;;36.80;15.65;;;2.70;99.90;;;;;;5046406;28;20520;-84
2022/12/02 04:20:07;;;;;;;36.60;16.25;;;2.60;99.90;;;;;;5017673;28;20462;-84
2022/12/02 04:22:32;;;;;;;37.00;16.40;;;2.60;99.90;;;;;;5025124;28;20126;-85
2022/12/02 04:24:59;;;;;;;37.58;15.82;;;2.60;99.90;;;;;;5044409;28;20510;-84
2022/12/02 04:27:27;;;;;;;42.15;16.90;;;2.60;99.90;;;;;;5036298;28;20075;-85
2022/12/02 04:29:53;;;;;;;41.58;17.67;;;2.60;99.90;;;;;;5020028;28;20037;-85
2022/12/02 04:32:19;;;;;;;40.50;16.80;;;2.60;99.90;;;;;;5031980;28;20072;-84
2022/12/02 04:34:45;;;;;;;44.13;17.55;;;2.60;99.90;;;;;;5032715;28;20052;-85
2022/12/02 04:37:12;;;;;;;40.65;17.40;;;2.60;99.90;;;;;;5020978;28;20391;-84
2022/12/02 04:39:38;;;;;;;42.80;17.85;;;2.60;99.90;;;;;;5019315;28;20040;-85
2022/12/02 04:42:03;;;;;;;43.10;17.38;;;2.60;99.90;;;;;;5020995;28;20041;-85
2022/12/02 04:44:29;;;;;;;46.35;18.25;;;2.60;99.90;;;;;;5015505;28;20033;-85
2022/12/02 04:46:55;;;;;;;47.78;18.55;;;2.60;99.90;;;;;;5021178;28;20450;-85
2022/12/02 04:49:20;;;;;;;42.70;17.58;;;2.60;99.90;;;;;;5034009;28;20041;-85
2022/12/02 04:51:49;;;;;;;42.03;17.65;;;2.60;99.90;;;;;;5022305;28;20076;-84
2022/12/02 04:54:14;;;;;;;50.95;18.90;;;2.60;99.90;;;;;;5043528;28;20084;-83
2022/12/02 04:56:40;;;;;;;46.40;17.98;;;2.50;99.90;;;;;;5050209;28;20442;-85
2022/12/02 04:59:06;;;;;;;48.60;19.48;;;2.50;99.90;;;;;;5021960;28;20285;-85
2022/12/02 05:01:31;;;;;;;44.42;17.15;;;2.50;99.90;;;;;;5023484;28;20044;-85
2022/12/02 05:03:57;;;;;;;49.20;18.88;;;2.50;99.90;;;;;;5021972;28;20041;-85
2022/12/02 05:06:23;;;;;;;43.97;17.90;;;2.50;99.90;;;;;;5023781;28;20087;-84
2022/12/02 05:08:49;;;;;;;48.53;19.17;;;2.50;99.90;;;;;;5020430;28;20579;-85
2022/12/02 05:11:14;;;;;;;51.53;20.23;;;2.50;99.90;;;;;;5035145;28;20436;-85
2022/12/02 05:13:40;;;;;;;48.28;19.30;;;2.50;99.90;;;;;;5022587;28;20435;-84
2022/12/02 05:16:06;;;;;;;45.97;19.75;;;2.50;99.90;;;;;;5021486;28;20945;-84
2022/12/02 05:18:34;;;;;;;50.47;21.23;;;2.50;99.90;;;;;;5020209;28;20041;-85
2022/12/02 05:21:03;;;;;;;51.05;20.52;;;2.50;99.90;;;;;;5015782;28;20095;-84
2022/12/02 05:23:29;;;;;;;50.15;20.35;;;2.50;99.90;;;;;;5055439;28;20124;-84
2022/12/02 05:25:55;;;;;;;48.58;19.65;;;2.50;99.90;;;;;;5021951;28;20041;-85
2022/12/02 05:28:20;;;;;;;51.17;19.55;;;2.50;99.90;;;;;;5065842;28;20048;-85
2022/12/02 05:30:46;;;;;;;51.92;20.50;;;2.50;99.90;;;;;;5050965;28;20041;-84
2022/12/02 05:33:12;;;;;;;47.75;20.33;;;2.60;99.90;;;;;;5020565;28;20044;-85
2022/12/02 05:35:37;;;;;;;57.70;21.30;;;2.60;99.90;;;;;;5067849;28;20203;-86
2022/12/02 05:38:03;;;;;;;49.70;19.80;;;2.60;99.90;;;;;;5019442;28;20052;-84
2022/12/02 05:40:28;;;;;;;52.55;19.80;;;2.60;99.90;;;;;;5035328;28;20129;-85
2022/12/02 05:42:54;;;;;;;49.00;19.65;;;2.60;99.90;;;;;;5023756;28;20041;-85
2022/12/02 05:45:22;;;;;;;50.92;19.92;;;2.60;99.90;;;;;;5024510;28;20109;-84
2022/12/02 05:47:50;;;;;;;43.90;18.80;;;2.60;99.90;;;;;;5034991;28;20039;-84
2022/12/02 05:50:15;;;;;;;48.35;20.00;;;2.60;99.90;;;;;;5040047;28;20433;-85
2022/12/02 05:52:42;;;;;;;51.90;21.52;;;2.60;99.90;;;;;;5021529;28;20059;-84
2022/12/02 05:55:15;;;;;;;49.72;19.33;;;2.60;99.90;;;;;;5018635;28;20550;-85
2022/12/02 05:57:41;;;;;;;53.33;19.00;;;2.60;99.90;;;;;;5067263;28;20120;-85
2022/12/02 06:00:14;;;;;;;51.40;20.45;;;2.60;99.90;;;;;;5019740;28;20415;-85
2022/12/02 06:02:46;;;;;;;50.55;19.75;;;2.60;99.90;;;;;;5036845;28;20313;-85
2022/12/02 06:05:18;;;;;;;51.92;18.63;;;2.60;99.90;;;;;;5068182;28;20663;-86
2022/12/02 06:07:45;;;;;;;51.58;20.20;;;2.60;99.90;;;;;;5017373;28;20040;-84
2022/12/02 06:10:23;;;;;;;46.28;19.15;;;2.70;99.90;;;;;;5035467;28;20036;-85
2022/12/02 06:12:51;;;;;;;47.67;19.75;;;2.70;99.90;;;;;;5062112;28;20033;-85
2022/12/02 06:15:17;;;;;;;48.83;19.23;;;2.70;99.90;;;;;;5016570;28;20041;-85
2022/12/02 06:17:43;;;;;;;49.90;20.05;;;2.70;99.90;;;;;;5046930;28;20033;-85
2022/12/02 06:20:32;;;;;;;54.30;20.27;;;2.70;99.90;;;;;;5046095;28;20037;-84
2022/12/02 06:23:00;;;;;;;52.28;20.23;;;2.70;99.90;;;;;;5022162;28;20444;-85
2022/12/02 06:25:29;;;;;;;57.45;20.70;;;2.60;99.90;;;;;;5047062;28;20283;-85
2022/12/02 06:28:00;;;;;;;50.70;20.73;;;2.70;99.90;;;;;;5020242;28;20060;-85
2022/12/02 06:30:26;;;;;;;52.55;19.67;;;2.70;99.90;;;;;;5049201;28;20809;-85
2022/12/02 06:32:59;;;;;;;55.60;19.65;;;2.70;99.90;;;;;;5047944;28;20492;-85
2022/12/02 06:35:28;;;;;;;47.72;19.13;;;2.60;99.90;;;;;;5047441;28;20060;-85
2022/12/02 06:37:56;;;;;;;48.83;20.50;;;2.60;99.90;;;;;;5019600;28;20045;-85
2022/12/02 06:40:32;;;;;;;55.05;21.10;;;2.60;99.90;;;;;;5037510;28;20409;-85
2022/12/02 06:43:00;;;;;;;50.22;19.08;;;2.60;99.90;;;;;;5066504;28;20373;-84
2022/12/02 06:45:32;;;;;;;55.30;21.08;;;2.60;99.90;;;;;;5018518;28;20044;-85
2022/12/02 06:48:03;;;;;;;60.22;23.02;;;2.50;99.90;;;;;;5050010;28;20039;-84
2022/12/02 06:50:36;;;;;;;54.28;22.33;;;2.50;99.90;;;;;;5062665;28;20044;-85
2022/12/02 06:53:30;;;;;;;60.85;23.17;;;2.50;99.90;;;;;;5037755;28;20522;-84
2022/12/02 06:56:03;;;;;;;65.25;23.75;;;2.50;99.90;;;;;;5065643;28;20101;-83
2022/12/02 06:58:37;;;;;;;70.97;24.73;;;2.50;99.90;;;;;;5015829;28;20040;-85
2022/12/02 07:01:40;;;;;;;58.35;23.85;;;2.60;99.90;;;;;;5018165;28;20114;-85
2022/12/02 07:04:09;;;;;;;62.80;22.55;;;2.60;99.90;;;;;;4999236;28;20064;-84
2022/12/02 07:06:48;;;;;;;66.97;24.35;;;2.70;99.90;;;;;;5016803;28;20055;-85
2022/12/02 07:09:44;;;;;;;65.43;24.45;;;2.70;99.90;;;;;;5064011;28;20044;-85
2022/12/02 07:12:18;;;;;;;55.47;23.23;;;2.80;99.90;;;;;;5054983;28;20472;-85
2022/12/02 07:14:47;;;;;;;;;;;2.80;99.90;;;;;;5050315;28;20047;-85
2022/12/02 07:17:19;;;;;;;59.78;23.33;;;2.90;99.90;;;;;;5051500;28;19978;-85
2022/12/02 07:19:49;;;;;;;63.00;22.85;;;2.90;99.90;;;;;;5017323;28;20567;-85
2022/12/02 07:22:21;;;;;;;58.08;22.85;;;2.90;99.90;;;;;;5021302;28;20045;-85
2022/12/02 07:25:00;;;;;;;61.17;24.23;;;3.00;99.90;;;;;;5047609;28;20029;-85
2022/12/02 07:27:33;;;;;;;61.17;23.20;;;3.00;99.90;;;;;;5019672;28;20060;-85
2022/12/02 07:30:00;;;;;;;60.30;23.00;;;3.00;99.90;;;;;;5018768;28;20520;-85
2022/12/02 07:32:26;;;;;;;56.75;22.65;;;2.90;99.90;;;;;;5020545;28;20041;-85
2022/12/02 07:34:52;;;;;;;59.10;22.50;;;2.90;99.90;;;;;;5031678;28;20096;-85
2022/12/02 07:37:18;;;;;;;58.13;22.23;;;2.90;99.90;;;;;;5017354;28;20205;-85
2022/12/02 07:39:44;;;;;;;54.92;21.13;;;2.90;99.90;;;;;;5066728;28;20464;-85
2022/12/02 07:42:13;;;;;;;53.97;21.27;;;2.90;99.90;;;;;;5063546;28;20507;-85
2022/12/02 07:44:39;;;;;;;48.88;20.05;;;2.80;99.90;;;;;;5048444;28;20041;-86
2022/12/02 07:47:06;;;;;;;49.30;19.25;;;2.80;99.90;;;;;;5066331;28;20040;-86
2022/12/02 07:49:32;;;;;;;48.72;19.77;;;2.80;99.90;;;;;;5017870;28;20182;-85
2022/12/02 07:51:57;;;;;;;49.55;19.63;;;2.80;99.90;;;;;;5050030;28;20174;-85
2022/12/02 07:54:23;;;;;;;48.95;20.23;;;2.80;99.90;;;;;;5018338;28;20141;-86
2022/12/02 07:56:49;;;;;;;50.75;20.52;;;2.80;99.90;;;;;;5018440;28;20041;-85
2022/12/02 07:59:17;;;;;;;56.30;21.50;;;2.80;99.90;;;;;;5014252;28;20049;-84
2022/12/02 08:01:44;;;;;;;49.45;21.05;;;2.80;99.90;;;;;;5032076;28;20044;-85
2022/12/02 08:04:10;;;;;;;48.55;19.55;;;2.80;99.90;;;;;;5047134;28;20033;-85
2022/12/02 08:06:35;;;;;;;46.55;20.05;;;2.80;99.90;;;;;;5047334;28;20117;-85
2022/12/02 08:09:01;;;;;;;46.80;20.33;;;2.80;99.90;;;;;;5032764;28;20071;-85
2022/12/02 08:11:26;;;;;;;53.10;20.48;;;2.80;99.90;;;;;;5063649;28;20177;-85
2022/12/02 08:13:53;;;;;;;54.60;21.00;;;2.80;99.90;;;;;;5035030;28;20499;-85
2022/12/02 08:16:19;;;;;;;55.33;20.27;;;2.70;99.90;;;;;;5050297;28;20124;-85
2022/12/02 08:18:44;;;;;;;49.30;20.15;;;2.70;99.90;;;;;;5022536;28;20507;-85
2022/12/02 08:21:10;;;;;;;55.80;20.52;;;2.70;99.90;;;;;;5032414;28;20439;-85
2022/12/02 08:23:36;;;;;;;47.38;19.10;;;2.70;99.90;;;;;;5033517;28;20075;-85
2022/12/02 08:26:02;;;;;;;58.65;20.15;;;2.80;99.90;;;;;;5017772;28;20068;-86
2022/12/02 08:28:27;;;;;;;47.50;19.23;;;2.70;99.90;;;;;;5019183;28;20132;-85
2022/12/02 08:30:53;;;;;;;49.83;19.98;;;2.70;99.90;;;;;;5023449;28;20032;-85
2022/12/02 08:33:19;;;;;;;50.10;20.88;;;2.80;99.90;;;;;;5026189;28;20461;-86
2022/12/02 08:35:45;;;;;;;48.75;20.00;;;2.70;99.90;;;;;;5034698;28;20044;-85
2022/12/02 08:38:13;;;;;;;48.00;18.88;;;2.70;99.90;;;;;;5023649;28;20063;-85
2022/12/02 08:40:39;;;;;;;46.75;20.27;;;2.70;99.90;;;;;;5050493;28;20295;-84
2022/12/02 08:43:05;;;;;;;45.90;19.30;;;2.80;99.90;;;;;;5025126;28;20053;-85
2022/12/02 08:45:30;;;;;;;50.03;19.75;;;2.80;99.90;;;;;;5068842;28;20594;-86
2022/12/02 08:47:56;;;;;;;51.33;19.98;;;2.80;99.90;;;;;;5025052;28;20052;-84
2022/12/02 08:50:22;;;;;;;53.40;20.00;;;2.80;99.90;;;;;;5021017;28;20041;-85
2022/12/02 08:52:48;;;;;;;47.53;19.13;;;2.70;99.90;;;;;;5037346;28;20120;-85
2022/12/02 08:55:16;;;;;;;49.83;18.92;;;2.70;99.90;;;;;;5020792;28;20040;-85
2022/12/02 08:57:42;;;;;;;44.65;18.60;;;2.70;99.90;;;;;;5068559;28;20605;-85
2022/12/02 09:00:08;;;;;;;42.72;18.75;;;2.70;99.90;;;;;;5025980;28;20163;-86
2022/12/02 09:02:35;;;;;;;38.83;17.63;;;2.80;99.90;;;;;;5050706;28;20136;-85
2022/12/02 09:05:01;;;;;;;44.33;17.42;;;2.80;99.90;;;;;;5018646;28;20036;-85
2022/12/02 09:07:26;;;;;;;46.95;16.67;;;2.80;99.90;;;;;;5068608;28;20036;-85
2022/12/02 09:09:52;;;;;;;45.10;17.45;;;2.70;99.90;;;;;;5065083;28;20032;-85
2022/12/02 09:12:20;;;;;;;42.95;17.10;;;2.80;99.90;;;;;;5022084;28;20041;-85
2022/12/02 09:14:46;;;;;;;41.25;17.52;;;2.80;99.90;;;;;;5021995;28;20503;-85
2022/12/02 09:17:12;;;;;;;45.42;17.40;;;2.80;99.90;;;;;;5019282;28;20122;-83
2022/12/02 09:19:37;;;;;;;40.60;16.70;;;2.70;99.90;;;;;;5018801;28;20127;-85
2022/12/02 09:22:03;;;;;;;43.13;16.75;;;2.80;99.90;;;;;;5027996;28;20041;-85
2022/12/02 09:24:29;;;;;;;42.90;15.65;;;2.70;99.90;;;;;;5050236;28;20470;-85
2022/12/02 09:26:54;;;;;;;48.50;17.00;;;2.70;99.90;;;;;;5051829;28;20061;-85
2022/12/02 09:29:20;;;;;;;43.72;17.02;;;2.80;99.90;;;;;;5053963;28;20033;-85
2022/12/02 09:31:49;;;;;;;44.08;17.95;;;2.80;99.90;;;;;;5026135;28;20041;-85
2022/12/02 09:34:14;;;;;;;44.55;16.98;;;2.90;99.90;;;;;;5050150;28;20077;-85
2022/12/02 09:36:40;;;;;;;41.08;17.55;;;2.90;99.90;;;;;;5054183;28;20150;-85
2022/12/02 09:39:06;;;;;;;41.10;16.55;;;3.10;99.90;;;;;;5036876;28;20615;-84
2022/12/02 09:41:31;;;;;;;43.42;17.38;;;3.00;99.90;;;;;;5024040;28;20120;-85
2022/12/02 09:43:57;;;;;;;53.95;18.52;;;3.00;99.90;;;;;;5036022;28;20037;-85
2022/12/02 09:46:24;;;;;;;50.72;19.55;;;3.10;99.90;;;;;;5051921;28;20041;-85
2022/12/02 09:48:52;;;;;;;56.33;19.50;;;3.30;99.90;;;;;;5048115;28;20213;-85
2022/12/02 09:51:18;;;;;;;52.92;20.92;;;3.30;99.90;;;;;;5031502;28;20065;-85
2022/12/02 09:53:45;;;;;;;47.15;17.73;;;3.50;99.90;;;;;;5022512;28;20295;-86
2022/12/02 09:56:17;;;;;;;44.95;19.23;;;3.50;99.90;;;;;;5017009;28;20555;-85
2022/12/02 09:58:46;;;;;;;48.83;17.92;;;3.60;99.90;;;;;;5021580;28;20336;-85
2022/12/02 10:01:13;;;;;;;48.22;19.33;;;3.60;99.90;;;;;;5023397;28;20037;-85
2022/12/02 10:03:40;;;;;;;50.70;20.50;;;3.40;99.90;;;;;;5026947;28;20041;-84
2022/12/02 10:06:11;;;;;;;46.75;18.58;;;3.30;99.90;;;;;;5034909;28;20171;-85
2022/12/02 10:08:37;;;;;;;40.33;17.58;;;3.30;99.90;;;;;;5035383;28;20052;-85
2022/12/02 10:11:04;;;;;;;38.47;18.23;;;3.30;99.90;;;;;;5020765;28;20041;-85
2022/12/02 10:13:36;;;;;;;47.70;19.60;;;3.30;99.90;;;;;;5051090;28;20045;-85
2022/12/02 10:16:09;;;;;;;47.08;19.02;;;3.30;99.90;;;;;;5067222;28;20399;-85
2022/12/02 10:18:35;;;;;;;47.47;20.20;;;3.30;99.90;;;;;;5065605;28;20051;-85
2022/12/02 10:21:01;;;;;;;45.67;19.13;;;3.30;99.90;;;;;;5017551;28;20037;-84
2022/12/02 10:23:27;;;;;;;48.50;19.67;;;3.20;99.90;;;;;;5049325;28;20029;-85
2022/12/02 10:26:11;;;;;;;51.03;19.38;;;3.10;99.90;;;;;;5047286;28;20199;-84
2022/12/02 10:28:39;;;;;;;53.65;20.75;;;3.10;99.90;;;;;;5022604;28;20036;-85
2022/12/02 10:31:13;;;;;;;50.97;20.40;;;3.00;99.90;;;;;;5035140;28;20496;-85
2022/12/02 10:34:06;;;;;;;50.75;20.98;;;3.00;99.90;;;;;;5048461;28;20044;-85
2022/12/02 10:36:40;;;;;;;50.17;21.42;;;3.00;99.90;;;;;;5016025;28;20110;-86
2022/12/02 10:39:29;;;;;;;49.78;20.23;;;3.00;99.90;;;;;;5034372;28;20595;-85
2022/12/02 10:42:06;;;;;;;53.30;20.77;;;2.90;99.90;;;;;;5047367;28;20052;-85
2022/12/02 10:44:34;;;;;;;53.15;21.42;;;2.90;99.90;;;;;;5023731;28;20064;-85
2022/12/02 10:47:20;;;;;;;47.28;19.67;;;2.90;99.90;;;;;;5034947;28;20087;-85
2022/12/02 10:49:58;;;;;;;53.95;22.23;;;2.90;99.90;;;;;;5050544;28;20226;-85
2022/12/02 10:52:43;;;;;;;53.05;22.17;;;2.90;99.90;;;;;;5046566;28;20394;-85
2022/12/02 10:55:09;;;;;;;54.80;22.38;;;2.90;99.90;;;;;;5048233;28;20552;-85
2022/12/02 10:57:36;;;;;;;51.63;20.83;;;2.90;99.90;;;;;;5018484;28;20079;-85
2022/12/02 11:00:12;;;;;;;52.28;21.50;;;2.90;99.90;;;;;;5033196;28;20123;-85
2022/12/02 11:02:46;;;;;;;49.40;21.67;;;2.90;99.90;;;;;;5046544;28;20084;-85
2022/12/02 11:05:27;;;;;;;46.92;21.75;;;2.90;99.90;;;;;;5033644;28;20041;-85
2022/12/02 11:08:06;;;;;;;52.38;21.17;;;2.90;99.90;;;;;;5018169;28;20052;-86
2022/12/02 11:10:40;;;;;;;56.33;23.20;;;2.90;99.90;;;;;;5036006;28;20029;-85
2022/12/02 11:13:29;;;;;;;49.08;21.08;;;2.90;99.90;;;;;;5047055;28;20041;-85
2022/12/02 11:15:54;;;;;;;53.13;22.98;;;2.90;99.90;;;;;;5007424;28;20041;-85
2022/12/02 11:18:29;;;;;;;49.08;21.42;;;2.90;99.90;;;;;;5048138;28;20036;-86
2022/12/02 11:21:01;;;;;;;;;;;2.90;99.90;;;;;;5050572;28;20041;-85
2022/12/02 11:23:29;;;;;;;49.97;21.13;;;2.90;99.90;;;;;;5016835;28;20057;-85
2022/12/02 11:26:02;;;;;;;48.95;21.65;;;2.90;99.90;;;;;;5016694;28;20500;-86
2022/12/02 11:28:27;;;;;;;54.17;23.35;;;3.00;99.90;;;;;;5019273;28;20033;-85
2022/12/02 11:31:19;;;;;;;52.03;24.15;;;3.00;99.90;;;;;;5034786;28;20411;-85
2022/12/02 11:33:48;;;;;;;52.85;22.77;;;3.00;99.90;;;;;;5047616;28;20076;-85
2022/12/02 11:36:22;;;;;;;52.38;23.55;;;3.00;99.90;;;;;;5033214;28;20091;-86
2022/12/02 11:39:00;;;;;;;51.70;21.75;;;3.10;99.90;;;;;;5048597;28;20037;-84
2022/12/02 11:41:47;;;;;;;51.85;23.60;;;3.10;99.90;;;;;;5036528;28;20044;-85
2022/12/02 11:44:26;;;;;;;52.67;23.58;;;3.10;99.90;;;;;;5034698;28;20424;-85
2022/12/02 11:46:54;;;;;;;49.70;23.02;;;3.10;99.90;;;;;;5063360;28;20090;-85
2022/12/02 11:49:36;;;;;;;47.15;22.20;;;3.20;99.90;;;;;;5036608;28;20052;-85
2022/12/02 11:52:07;;;;;;;50.88;22.67;;;3.10;99.90;;;;;;5055660;28;20496;-85
2022/12/02 11:54:49;;;;;;;50.45;24.23;;;3.10;99.90;;;;;;5022116;28;20405;-85
2022/12/02 11:57:48;;;;;;;51.50;22.77;;;3.10;99.90;;;;;;5064808;28;20043;-85
2022/12/02 12:00:34;;;;;;;46.08;21.75;;;3.00;99.90;;;;;;5066606;28;20328;-86
2022/12/02 12:03:11;;;;;;;51.25;24.10;;;3.00;99.90;;;;;;5016724;28;20106;-85
2022/12/02 12:05:37;;;;;;;50.67;23.70;;;3.00;99.90;;;;;;5014583;28;20041;-86
2022/12/02 12:08:03;;;;;;;48.45;23.23;;;3.00;99.90;;;;;;5016439;28;20147;-86
2022/12/02 12:10:38;;;;;;;53.10;24.80;;;3.10;99.90;;;;;;5018003;28;20515;-85
2022/12/02 12:13:12;;;;;;;53.92;25.67;;;3.00;99.90;;;;;;5031847;28;20396;-86
2022/12/02 12:16:00;;;;;;;50.20;24.58;;;3.00;99.90;;;;;;5032643;28;20037;-85
2022/12/02 12:18:47;;;;;;;50.30;24.02;;;3.10;99.90;;;;;;5046985;28;20059;-84
2022/12/02 12:21:41;;;;;;;52.92;25.00;;;3.10;99.90;;;;;;5049472;28;20090;-85
2022/12/02 12:24:33;;;;;;;52.53;23.88;;;3.10;99.90;;;;;;5017656;28;20045;-85
2022/12/02 12:27:02;;;;;;;48.00;24.23;;;3.10;99.90;;;;;;5063482;28;20044;-86
2022/12/02 12:29:31;;;;;;;52.05;25.38;;;3.00;99.90;;;;;;5033023;28;20455;-84
2022/12/02 12:31:57;;;;;;;50.55;25.10;;;3.10;99.90;;;;;;5019827;28;20102;-86
2022/12/02 12:34:22;;;;;;;52.63;25.27;;;3.10;99.90;;;;;;5015921;28;20049;-85
2022/12/02 12:36:48;;;;;;;48.53;24.48;;;3.10;99.90;;;;;;5035131;28;20136;-85
2022/12/02 12:39:18;;;;;;;48.88;24.83;;;3.10;99.90;;;;;;5047709;28;20067;-85
2022/12/02 12:41:44;;;;;;;48.92;25.25;;;3.10;99.90;;;;;;5031949;28;20044;-85
2022/12/02 12:44:09;;;;;;;50.67;26.25;;;3.10;99.90;;;;;;5017757;28;20028;-85
2022/12/02 12:46:35;;;;;;;44.15;23.52;;;3.20;99.90;;;;;;5064912;28;20111;-85
2022/12/02 12:49:01;;;;;;;54.33;25.60;;;3.00;99.90;;;;;;5018953;28;20047;-85